createdAt,value
2023-02-13T00:01:42.598Z,28.57
2023-02-13T00:04:11.316Z,29.90
2023-02-13T00:06:39.957Z,36.03
2023-02-13T00:09:11.350Z,32.80
2023-02-13T00:11:39.124Z,30.37
2023-02-13T00:14:06.950Z,30.50
2023-02-13T00:16:34.991Z,31.93
2023-02-13T00:19:02.735Z,26.33
2023-02-13T00:21:30.329Z,30.10
2023-02-13T00:23:58.259Z,32.10
2023-02-13T00:26:26.170Z,32.27
2023-02-13T00:28:54.053Z,28.03
2023-02-13T00:31:24.891Z,28.10
2023-02-13T00:33:52.659Z,28.83
2023-02-13T00:36:24.122Z,30.53
2023-02-13T00:38:54.424Z,31.77
2023-02-13T00:41:23.392Z,31.80
2023-02-13T00:43:52.487Z,32.23
2023-02-13T00:46:20.806Z,35.83
2023-02-13T00:48:53.584Z,33.10
2023-02-13T00:51:22.132Z,30.37
2023-02-13T00:53:49.783Z,30.33
2023-02-13T00:56:17.895Z,34.67
2023-02-13T00:58:46.630Z,27.57
2023-02-13T01:01:14.648Z,30.33
2023-02-13T01:03:42.604Z,32.83
2023-02-13T01:06:10.468Z,31.13
2023-02-13T01:08:41.711Z,30.70
2023-02-13T01:11:10.111Z,30.37
2023-02-13T01:13:38.500Z,28.43
2023-02-13T01:16:08.103Z,26.80
2023-02-13T01:18:36.316Z,29.03
2023-02-13T01:21:17.146Z,24.13
2023-02-13T01:23:46.648Z,22.53
2023-02-13T01:26:25.357Z,20.13
2023-02-13T01:28:58.177Z,23.27
2023-02-13T01:31:26.817Z,20.10
2023-02-13T01:33:58.902Z,23.40
2023-02-13T01:36:27.975Z,23.43
2023-02-13T01:38:59.362Z,19.73
2023-02-13T01:41:28.866Z,19.80
2023-02-13T01:44:02.395Z,20.53
2023-02-13T01:46:44.424Z,20.10
2023-02-13T01:49:25.803Z,20.53
2023-02-13T01:51:56.968Z,15.87
2023-02-13T01:54:33.665Z,19.60
2023-02-13T01:57:28.863Z,19.50
2023-02-13T02:00:10.402Z,22.17
2023-02-13T02:03:16.070Z,24.80
2023-02-13T02:05:44.401Z,18.00
2023-02-13T02:08:15.828Z,19.93
2023-02-13T02:10:44.328Z,16.57
2023-02-13T02:13:21.633Z,16.47
2023-02-13T02:15:52.774Z,18.47
2023-02-13T02:18:25.022Z,18.87
2023-02-13T02:21:47.729Z,22.60
2023-02-13T02:25:17.430Z,17.60
2023-02-13T02:28:35.658Z,13.90
2023-02-13T02:32:32.000Z,18.00
2023-02-13T02:36:03.164Z,17.37
2023-02-13T02:39:20.243Z,15.30
2023-02-13T02:43:24.128Z,13.53
2023-02-13T02:46:18.606Z,15.37
2023-02-13T02:49:35.583Z,14.97
2023-02-13T02:52:24.014Z,15.23
2023-02-13T02:55:09.892Z,15.33
2023-02-13T02:58:56.692Z,17.23
2023-02-13T03:01:52.793Z,19.00
2023-02-13T03:04:59.805Z,14.00
2023-02-13T03:07:28.430Z,12.70
2023-02-13T03:10:31.633Z,13.17
2023-02-13T03:13:29.015Z,13.37
2023-02-13T03:16:19.776Z,12.23
2023-02-13T03:19:16.322Z,14.03
2023-02-13T03:22:36.986Z,12.80
2023-02-13T03:25:34.332Z,13.60
2023-02-13T03:29:20.045Z,14.00
2023-02-13T03:32:44.554Z,11.27
2023-02-13T03:36:50.749Z,12.47
2023-02-13T03:39:53.345Z,12.63
2023-02-13T03:43:10.064Z,10.67
2023-02-13T03:45:54.873Z,11.73
2023-02-13T03:48:58.896Z,9.83
2023-02-13T03:51:44.141Z,9.80
2023-02-13T03:55:14.890Z,10.33
2023-02-13T03:58:06.889Z,11.43
2023-02-13T04:00:47.219Z,10.17
2023-02-13T04:04:07.394Z,10.90
2023-02-13T04:07:09.091Z,11.70
2023-02-13T04:09:43.357Z,10.60
2023-02-13T04:12:35.827Z,14.20
2023-02-13T04:15:37.307Z,9.37
2023-02-13T04:18:32.428Z,8.87
2023-02-13T04:21:08.786Z,9.00
2023-02-13T04:23:37.125Z,8.60
2023-02-13T04:26:19.410Z,9.30
2023-02-13T04:28:47.535Z,8.47
2023-02-13T04:31:15.846Z,8.67
2023-02-13T04:33:43.534Z,8.67
2023-02-13T04:36:11.393Z,7.60
2023-02-13T04:38:39.150Z,8.30
2023-02-13T04:41:06.803Z,9.13
2023-02-13T04:43:34.484Z,9.50
2023-02-13T04:46:02.167Z,8.27
2023-02-13T04:48:29.959Z,8.60
2023-02-13T04:50:58.028Z,7.93
2023-02-13T04:53:26.024Z,8.47
2023-02-13T04:55:53.711Z,9.50
2023-02-13T04:58:21.472Z,7.33
2023-02-13T05:00:49.154Z,8.43
2023-02-13T05:03:16.876Z,9.33
2023-02-13T05:05:44.839Z,8.90
2023-02-13T05:08:12.702Z,10.07
2023-02-13T05:10:40.540Z,7.67
2023-02-13T05:13:08.275Z,7.73
2023-02-13T05:15:36.075Z,7.07
2023-02-13T05:18:04.026Z,8.40
2023-02-13T05:20:31.700Z,9.10
2023-02-13T05:23:18.461Z,8.33
2023-02-13T05:25:46.318Z,9.97
2023-02-13T05:28:32.964Z,9.50
2023-02-13T05:31:01.230Z,10.03
2023-02-13T05:33:29.222Z,10.60
2023-02-13T05:35:56.986Z,9.87
2023-02-13T05:38:25.274Z,8.90
2023-02-13T05:40:53.063Z,11.90
2023-02-13T05:43:21.172Z,10.00
2023-02-13T05:45:49.033Z,12.07
2023-02-13T05:48:16.811Z,11.80
2023-02-13T05:50:48.428Z,8.90
2023-02-13T05:53:16.141Z,10.40
2023-02-13T05:55:43.746Z,8.90
2023-02-13T05:58:12.013Z,10.83
2023-02-13T06:00:39.805Z,10.47
2023-02-13T06:03:07.832Z,10.97
2023-02-13T06:05:35.485Z,10.20
2023-02-13T06:08:03.705Z,9.60
2023-02-13T06:10:31.557Z,13.80
2023-02-13T06:12:59.430Z,10.93
2023-02-13T06:15:27.396Z,10.50
2023-02-13T06:17:55.098Z,10.83
2023-02-13T06:20:23.252Z,12.57
2023-02-13T06:22:53.017Z,14.83
2023-02-13T06:25:21.865Z,13.20
2023-02-13T06:27:49.977Z,13.33
2023-02-13T06:30:19.152Z,11.70
2023-02-13T06:32:49.377Z,13.03
2023-02-13T06:35:17.815Z,16.40
2023-02-13T06:37:45.894Z,13.67
2023-02-13T06:40:16.622Z,12.77
2023-02-13T06:42:46.509Z,13.93
2023-02-13T06:45:14.860Z,12.17
2023-02-13T06:47:48.655Z,12.67
2023-02-13T06:50:18.307Z,11.67
2023-02-13T06:52:52.742Z,12.63
2023-02-13T06:55:21.301Z,17.57
2023-02-13T06:57:49.635Z,14.90
2023-02-13T07:00:20.178Z,22.80
2023-02-13T07:02:48.702Z,26.47
2023-02-13T07:05:16.758Z,21.00
2023-02-13T07:07:44.958Z,19.70
2023-02-13T07:10:14.819Z,26.13
2023-02-13T07:12:42.678Z,22.37
2023-02-13T07:15:11.905Z,19.60
2023-02-13T07:17:39.575Z,22.57
2023-02-13T07:20:09.457Z,23.33
2023-02-13T07:22:37.442Z,19.80
2023-02-13T07:25:05.629Z,20.83
2023-02-13T07:27:33.273Z,17.63
2023-02-13T07:30:01.040Z,18.10
2023-02-13T07:32:28.713Z,20.57
2023-02-13T07:35:02.103Z,22.63
2023-02-13T07:37:32.675Z,17.70
2023-02-13T07:40:00.849Z,21.83
2023-02-13T07:42:28.657Z,18.33
2023-02-13T07:44:56.761Z,19.47
2023-02-13T07:47:24.564Z,17.37
2023-02-13T07:49:52.167Z,19.00
2023-02-13T07:52:19.873Z,19.40
2023-02-13T07:54:47.895Z,20.03
2023-02-13T07:57:17.524Z,14.57
2023-02-13T07:59:46.019Z,16.20
2023-02-13T08:02:16.605Z,22.53
2023-02-13T08:04:47.894Z,16.20
2023-02-13T08:07:18.601Z,17.27
2023-02-13T08:10:05.623Z,23.40
2023-02-13T08:12:37.034Z,14.47
2023-02-13T08:15:06.933Z,18.10
2023-02-13T08:17:34.550Z,16.77
2023-02-13T08:20:02.160Z,14.00
2023-02-13T08:22:29.866Z,14.57
2023-02-13T08:24:57.479Z,17.60
2023-02-13T08:27:25.161Z,15.37
2023-02-13T08:29:52.931Z,18.70
2023-02-13T08:32:20.588Z,14.20
2023-02-13T08:34:48.467Z,13.97
2023-02-13T08:37:16.890Z,13.47
2023-02-13T08:39:45.179Z,14.83
2023-02-13T08:42:15.795Z,13.73
2023-02-13T08:44:45.124Z,12.50
2023-02-13T08:47:13.333Z,14.00
2023-02-13T08:49:40.961Z,13.60
2023-02-13T08:52:08.819Z,11.03
2023-02-13T08:54:36.602Z,12.30
2023-02-13T08:57:04.872Z,10.27
2023-02-13T08:59:32.515Z,11.60
2023-02-13T09:02:00.238Z,15.53
2023-02-13T09:04:28.280Z,11.20
2023-02-13T09:06:56.899Z,12.20
2023-02-13T09:09:24.543Z,13.57
2023-02-13T09:11:52.588Z,10.90
2023-02-13T09:14:20.323Z,11.97
2023-02-13T09:16:47.998Z,12.50
2023-02-13T09:19:17.042Z,11.20
2023-02-13T09:21:44.909Z,14.43
2023-02-13T09:24:12.577Z,12.07
2023-02-13T09:26:40.324Z,13.30
2023-02-13T09:29:07.951Z,16.03
2023-02-13T09:31:35.743Z,10.27
2023-02-13T09:34:03.478Z,13.40
2023-02-13T09:36:31.303Z,12.50
2023-02-13T09:38:59.443Z,14.33
2023-02-13T09:41:46.010Z,11.20
2023-02-13T09:44:43.829Z,13.10
2023-02-13T09:47:31.583Z,12.10
2023-02-13T09:50:25.717Z,14.30
2023-02-13T09:52:58.650Z,11.10
2023-02-13T09:56:16.050Z,11.37
2023-02-13T09:59:23.114Z,12.20
2023-02-13T10:01:56.379Z,13.77
2023-02-13T10:04:53.221Z,16.73
2023-02-13T10:07:54.222Z,12.20
2023-02-13T10:11:21.012Z,13.77
2023-02-13T10:14:45.763Z,12.43
2023-02-13T10:17:38.926Z,10.47
2023-02-13T10:20:32.697Z,11.63
2023-02-13T10:23:45.516Z,13.40
2023-02-13T10:26:48.502Z,12.00
2023-02-13T10:29:57.278Z,13.83
2023-02-13T10:33:19.186Z,12.47
2023-02-13T10:36:16.733Z,14.33
2023-02-13T10:39:07.150Z,11.50
2023-02-13T10:42:22.969Z,12.70
2023-02-13T10:45:40.552Z,11.50
2023-02-13T10:48:48.583Z,14.47
2023-02-13T10:51:38.091Z,11.40
2023-02-13T10:54:28.033Z,19.03
2023-02-13T10:57:53.854Z,14.83
2023-02-13T11:01:07.163Z,17.20
2023-02-13T11:03:35.218Z,15.63
2023-02-13T11:06:15.948Z,18.97
2023-02-13T11:08:48.259Z,11.30
2023-02-13T11:11:38.513Z,13.33
2023-02-13T11:14:25.124Z,13.43
2023-02-13T11:17:09.806Z,10.70
2023-02-13T11:19:54.204Z,17.10
2023-02-13T11:22:45.292Z,12.77
2023-02-13T11:25:26.866Z,11.93
2023-02-13T11:28:18.690Z,13.63
2023-02-13T11:30:46.698Z,13.70
2023-02-13T11:33:17.455Z,13.23
2023-02-13T11:35:48.586Z,13.27
2023-02-13T11:38:19.137Z,15.30
2023-02-13T11:41:05.636Z,14.97
2023-02-13T11:44:04.314Z,12.37
2023-02-13T11:46:51.273Z,12.50
2023-02-13T11:49:28.800Z,11.50
2023-02-13T11:52:04.947Z,13.20
2023-02-13T11:54:56.416Z,16.00
2023-02-13T11:57:39.011Z,10.70
2023-02-13T12:00:43.391Z,13.30
2023-02-13T12:03:33.039Z,10.53
2023-02-13T12:06:16.234Z,13.20
2023-02-13T12:08:50.356Z,11.73
2023-02-13T12:11:57.811Z,11.77
2023-02-13T12:14:42.151Z,9.50
2023-02-13T12:17:31.810Z,11.00
2023-02-13T12:20:01.376Z,13.40
2023-02-13T12:23:12.562Z,12.60
2023-02-13T12:26:13.616Z,14.30
2023-02-13T12:29:25.761Z,11.33
2023-02-13T12:32:51.690Z,12.80
2023-02-13T12:35:41.882Z,11.43
2023-02-13T12:38:47.333Z,9.33
2023-02-13T12:41:56.293Z,10.30
2023-02-13T12:45:05.951Z,10.03
2023-02-13T12:48:33.605Z,10.17
2023-02-13T12:51:52.116Z,11.80
2023-02-13T12:55:01.668Z,9.93
2023-02-13T12:58:42.018Z,9.83
2023-02-13T13:01:54.948Z,10.20
2023-02-13T13:05:17.948Z,9.13
2023-02-13T13:08:38.345Z,12.70
2023-02-13T13:12:14.626Z,10.30
2023-02-13T13:15:07.005Z,11.47
2023-02-13T13:18:06.182Z,11.70
2023-02-13T13:21:28.473Z,13.57
2023-02-13T13:24:54.643Z,11.90
2023-02-13T13:27:36.485Z,9.60
2023-02-13T13:30:22.920Z,10.60
2023-02-13T13:33:11.401Z,10.73
2023-02-13T13:35:58.236Z,13.93
2023-02-13T13:39:45.552Z,9.93
2023-02-13T13:43:33.836Z,10.57
2023-02-13T13:46:45.081Z,11.57
2023-02-13T13:49:56.054Z,11.50
2023-02-13T13:52:30.675Z,10.17
2023-02-13T13:55:06.011Z,11.13
2023-02-13T13:58:01.610Z,9.50
2023-02-13T14:00:31.703Z,11.13
2023-02-13T14:02:59.477Z,11.50
2023-02-13T14:05:55.408Z,10.53
2023-02-13T14:08:42.126Z,9.33
2023-02-13T14:11:49.129Z,13.83
2023-02-13T14:14:31.535Z,10.07
2023-02-13T14:17:04.371Z,9.87
2023-02-13T14:19:53.319Z,9.30
2023-02-13T14:22:22.636Z,9.97
2023-02-13T14:25:07.865Z,11.60
2023-02-13T14:27:39.883Z,8.10
2023-02-13T14:30:40.605Z,9.60
2023-02-13T14:33:33.052Z,11.20
2023-02-13T14:36:27.364Z,13.03
2023-02-13T14:39:19.481Z,11.87
2023-02-13T14:41:55.939Z,8.30
2023-02-13T14:44:48.415Z,12.10
2023-02-13T14:47:44.209Z,10.00
2023-02-13T14:50:31.268Z,10.80
2023-02-13T14:53:10.901Z,9.03
2023-02-13T14:55:50.616Z,12.73
2023-02-13T14:58:37.244Z,16.13
2023-02-13T15:01:34.688Z,11.77
2023-02-13T15:04:32.867Z,14.03
2023-02-13T15:07:23.759Z,11.77
2023-02-13T15:10:46.456Z,9.30
2023-02-13T15:13:33.327Z,9.97
2023-02-13T15:16:15.251Z,13.67
2023-02-13T15:18:52.727Z,15.17
2023-02-13T15:21:33.180Z,10.43
2023-02-13T15:24:01.062Z,14.00
2023-02-13T15:26:29.767Z,11.90
2023-02-13T15:29:29.316Z,12.67
2023-02-13T15:32:00.284Z,11.20
2023-02-13T15:34:36.348Z,10.80
2023-02-13T15:37:04.544Z,9.40
2023-02-13T15:39:33.234Z,14.03
2023-02-13T15:42:03.953Z,12.80
2023-02-13T15:44:40.977Z,10.07
2023-02-13T15:47:30.676Z,11.83
2023-02-13T15:49:59.231Z,11.73
2023-02-13T15:52:39.517Z,10.43
2023-02-13T15:55:33.274Z,10.90
2023-02-13T15:58:06.653Z,10.73
2023-02-13T16:00:47.603Z,9.50
2023-02-13T16:03:21.976Z,11.33
2023-02-13T16:05:55.328Z,10.00
2023-02-13T16:08:45.064Z,12.50
2023-02-13T16:11:42.116Z,9.93
2023-02-13T16:14:25.933Z,13.43
2023-02-13T16:17:22.862Z,11.67
2023-02-13T16:20:31.134Z,12.40
2023-02-13T16:23:21.148Z,11.10
2023-02-13T16:25:49.797Z,11.77
2023-02-13T16:28:32.234Z,11.53
2023-02-13T16:31:07.518Z,13.80
2023-02-13T16:33:48.043Z,15.13
2023-02-13T16:36:30.269Z,11.40
2023-02-13T16:39:23.601Z,13.50
2023-02-13T16:41:56.666Z,14.37
2023-02-13T16:44:36.196Z,15.30
2023-02-13T16:47:23.951Z,12.30
2023-02-13T16:49:57.429Z,18.00
2023-02-13T16:52:26.892Z,15.00
2023-02-13T16:55:05.090Z,14.20
2023-02-13T16:57:36.369Z,13.97
2023-02-13T17:00:27.779Z,13.53
2023-02-13T17:02:55.547Z,13.17
2023-02-13T17:05:29.966Z,14.77
2023-02-13T17:07:59.714Z,21.60
2023-02-13T17:10:35.391Z,28.43
2023-02-13T17:13:11.638Z,28.13
2023-02-13T17:15:47.028Z,26.90
2023-02-13T17:18:16.385Z,24.33
2023-02-13T17:20:46.338Z,16.93
2023-02-13T17:23:32.469Z,19.03
2023-02-13T17:26:00.422Z,16.03
2023-02-13T17:28:31.155Z,21.57
2023-02-13T17:31:14.824Z,16.10
2023-02-13T17:33:45.009Z,21.57
2023-02-13T17:36:14.886Z,18.13
2023-02-13T17:38:42.704Z,17.07
2023-02-13T17:41:16.662Z,15.80
2023-02-13T17:43:44.669Z,13.67
2023-02-13T17:46:12.456Z,17.63
2023-02-13T17:48:40.300Z,14.97
2023-02-13T17:51:14.933Z,17.30
2023-02-13T17:53:42.894Z,26.43
2023-02-13T17:56:10.871Z,30.00
2023-02-13T17:58:39.310Z,25.53
2023-02-13T18:01:07.260Z,16.03
2023-02-13T18:03:35.124Z,18.50
2023-02-13T18:06:04.249Z,12.90
2023-02-13T18:08:34.848Z,14.50
2023-02-13T18:11:02.860Z,16.20
2023-02-13T18:13:49.316Z,13.83
2023-02-13T18:16:19.887Z,13.70
2023-02-13T18:18:48.562Z,12.90
2023-02-13T18:21:16.231Z,15.80
2023-02-13T18:23:44.124Z,16.93
2023-02-13T18:26:12.109Z,17.30
2023-02-13T18:28:39.942Z,14.27
2023-02-13T18:31:11.233Z,15.17
2023-02-13T18:33:39.356Z,17.93
2023-02-13T18:36:07.643Z,19.80
2023-02-13T18:38:35.600Z,14.07
2023-02-13T18:41:04.453Z,14.63
2023-02-13T18:43:32.407Z,16.10
2023-02-13T18:46:01.388Z,16.57
2023-02-13T18:48:30.997Z,15.57
2023-02-13T18:51:03.569Z,16.20
2023-02-13T18:53:33.668Z,17.37
2023-02-13T18:56:16.237Z,21.63
2023-02-13T18:58:47.953Z,17.57
2023-02-13T19:01:24.718Z,19.90
2023-02-13T19:03:57.398Z,16.80
2023-02-13T19:06:29.230Z,17.40
2023-02-13T19:09:01.092Z,16.70
2023-02-13T19:11:32.335Z,18.67
2023-02-13T19:14:07.812Z,20.80
2023-02-13T19:16:38.458Z,20.60
2023-02-13T19:19:11.923Z,26.20
2023-02-13T19:21:50.990Z,16.83
2023-02-13T19:24:22.676Z,15.77
2023-02-13T19:26:53.135Z,16.07
2023-02-13T19:29:21.908Z,19.10
2023-02-13T19:31:49.692Z,22.73
2023-02-13T19:34:17.748Z,22.00
2023-02-13T19:36:45.613Z,21.30
2023-02-13T19:39:13.277Z,22.43
2023-02-13T19:41:41.420Z,22.43
2023-02-13T19:44:09.852Z,24.63
2023-02-13T19:46:38.822Z,23.60
2023-02-13T19:49:07.159Z,24.73
2023-02-13T19:51:35.759Z,29.30
2023-02-13T19:54:10.853Z,22.33
2023-02-13T19:56:41.032Z,22.67
2023-02-13T19:59:14.316Z,22.63
2023-02-13T20:01:46.591Z,21.20
2023-02-13T20:04:14.913Z,25.30
2023-02-13T20:06:42.637Z,27.13
2023-02-13T20:09:15.733Z,22.63
2023-02-13T20:11:45.532Z,17.93
2023-02-13T20:14:15.568Z,23.63
2023-02-13T20:16:46.529Z,38.47
2023-02-13T20:19:15.198Z,30.97
2023-02-13T20:21:44.140Z,29.10
2023-02-13T20:24:12.979Z,29.70
2023-02-13T20:26:41.973Z,26.10
2023-02-13T20:29:10.367Z,21.53
2023-02-13T20:31:41.545Z,20.63
2023-02-13T20:34:10.466Z,22.33
2023-02-13T20:36:38.371Z,17.47
2023-02-13T20:39:08.643Z,19.20
2023-02-13T20:41:38.494Z,19.00
2023-02-13T20:44:13.381Z,19.97
2023-02-13T20:46:41.977Z,24.00
2023-02-13T20:49:13.000Z,20.03
2023-02-13T20:51:44.324Z,18.73
2023-02-13T20:54:12.697Z,20.40
2023-02-13T20:56:40.510Z,21.10
2023-02-13T20:59:08.285Z,22.33
2023-02-13T21:01:41.532Z,18.33
2023-02-13T21:04:14.330Z,17.03
2023-02-13T21:06:42.926Z,20.53
2023-02-13T21:09:11.041Z,20.97
2023-02-13T21:11:45.634Z,24.17
2023-02-13T21:14:15.984Z,19.73
2023-02-13T21:16:44.753Z,23.33
2023-02-13T21:19:20.418Z,23.93
2023-02-13T21:21:49.223Z,23.90
2023-02-13T21:24:23.714Z,23.33
2023-02-13T21:26:53.242Z,23.27
2023-02-13T21:29:21.188Z,23.67
2023-02-13T21:31:49.197Z,22.77
2023-02-13T21:34:18.911Z,21.80
2023-02-13T21:36:47.600Z,27.37
2023-02-13T21:39:15.873Z,23.43
2023-02-13T21:41:46.573Z,24.83
2023-02-13T21:44:16.938Z,23.50
2023-02-13T21:46:46.829Z,26.13
2023-02-13T21:49:19.022Z,25.07
2023-02-13T21:51:47.963Z,23.70
2023-02-13T21:54:15.905Z,22.60
2023-02-13T21:56:44.282Z,23.70
2023-02-13T21:59:17.611Z,23.57
2023-02-13T22:01:54.457Z,23.20
2023-02-13T22:04:22.522Z,21.13
2023-02-13T22:06:53.126Z,29.30
2023-02-13T22:09:22.648Z,27.03
2023-02-13T22:11:53.468Z,22.63
2023-02-13T22:14:22.522Z,22.20
2023-02-13T22:16:53.037Z,24.43
2023-02-13T22:19:21.981Z,30.13
2023-02-13T22:21:50.253Z,25.83
2023-02-13T22:24:18.241Z,24.63
2023-02-13T22:26:46.202Z,33.23
2023-02-13T22:29:18.602Z,27.00
2023-02-13T22:31:47.412Z,27.57
2023-02-13T22:34:17.198Z,24.47
2023-02-13T22:36:47.575Z,27.73
2023-02-13T22:39:15.880Z,29.20
2023-02-13T22:41:45.733Z,24.53
2023-02-13T22:44:15.622Z,28.37
2023-02-13T22:46:45.442Z,26.90
2023-02-13T22:49:13.144Z,30.43
2023-02-13T22:51:42.337Z,21.93
2023-02-13T22:54:11.688Z,26.80
2023-02-13T22:56:39.705Z,29.80
2023-02-13T22:59:07.517Z,25.17
2023-02-13T23:01:35.189Z,25.00
2023-02-13T23:04:03.123Z,22.63
2023-02-13T23:06:30.993Z,24.27
2023-02-13T23:08:58.704Z,28.10
2023-02-13T23:11:47.687Z,27.97
2023-02-13T23:14:16.664Z,30.93
2023-02-13T23:17:03.931Z,29.43
2023-02-13T23:19:32.026Z,32.40
2023-02-13T23:22:00.968Z,28.53
2023-02-13T23:24:30.802Z,34.33
2023-02-13T23:27:00.103Z,25.07
2023-02-13T23:29:28.311Z,29.33
2023-02-13T23:31:56.385Z,26.43
2023-02-13T23:34:24.556Z,29.60
2023-02-13T23:36:52.265Z,32.20
2023-02-13T23:39:21.196Z,32.73
2023-02-13T23:41:50.390Z,27.50
2023-02-13T23:44:18.317Z,24.90
2023-02-13T23:46:45.996Z,26.20
2023-02-13T23:49:13.874Z,21.27
2023-02-13T23:51:41.746Z,25.10
2023-02-13T23:54:14.352Z,27.70
2023-02-13T23:56:42.139Z,25.50
2023-02-13T23:59:10.363Z,24.97
